Zrenjanin, Serbia
Current Conditions -  °F | °C
As of 11:30 AM on Friday 24 Oct 2014 (Local Time) from LYBT Reporting Station
Few Clouds Few Clouds  
Wind Chill: 54°   Ceiling: Unl
Heat Index: 54°   Visibility: 6mi
Dew Point: 41°   Wind: 6mph
Humidity: 62%   Direction: 120°ESE
Pressure: 29.97"   Gusts: NA
Location:  45.37°N, 20.4°E
Report Text: LYBT 240930Z 12005KT 060V180 9999 FEW027 12/05 Q1015 NOSIG
Loading
Personal Weather Stations






























Interactive Weather Map
Tropical Storm Tracking
New forecast layout! Learn more

10-Day Weather Forecast

Advertisements
Track Severe Weather on mobile